createdAt,value
2018-08-12T00:00:41.097Z,37.90
2018-08-12T00:03:09.311Z,38.10
2018-08-12T00:05:37.476Z,38.90
2018-08-12T00:08:05.862Z,39.10
2018-08-12T00:10:34.030Z,39.40
2018-08-12T00:13:02.193Z,40.80
2018-08-12T00:15:30.375Z,40.30
2018-08-12T00:17:58.514Z,40.70
2018-08-12T00:20:26.731Z,41.00
2018-08-12T00:22:54.856Z,40.90
2018-08-12T00:25:23.869Z,41.50
2018-08-12T00:27:52.034Z,41.80
2018-08-12T00:30:20.447Z,42.40
2018-08-12T00:32:48.631Z,42.60
2018-08-12T00:35:17.827Z,42.70
2018-08-12T00:37:45.989Z,42.60
2018-08-12T00:40:15.308Z,42.90
2018-08-12T00:42:43.962Z,43.60
2018-08-12T00:45:16.167Z,43.90
2018-08-12T00:47:44.779Z,44.20
2018-08-12T00:50:13.647Z,44.80
2018-08-12T00:52:42.548Z,45.00
2018-08-12T00:55:12.728Z,45.70
2018-08-12T00:57:41.452Z,46.20
2018-08-12T01:00:12.079Z,46.90
2018-08-12T01:02:40.397Z,46.90
2018-08-12T01:05:10.167Z,47.20
2018-08-12T01:07:38.612Z,47.90
2018-08-12T01:10:07.245Z,48.40
2018-08-12T01:12:35.691Z,49.00
2018-08-12T01:15:05.960Z,49.30
2018-08-12T01:17:34.111Z,49.10
2018-08-12T01:20:02.281Z,49.30
2018-08-12T01:22:30.470Z,49.80
2018-08-12T01:24:58.655Z,49.60
2018-08-12T01:27:26.810Z,50.20
2018-08-12T01:29:55.006Z,51.10
2018-08-12T01:32:23.157Z,51.10
2018-08-12T01:34:51.436Z,51.10
2018-08-12T01:37:19.572Z,51.80
2018-08-12T01:39:47.717Z,52.80
2018-08-12T01:42:15.879Z,53.80
2018-08-12T01:44:44.084Z,54.30
2018-08-12T01:47:12.222Z,54.50
2018-08-12T01:49:40.408Z,55.10
2018-08-12T01:52:08.551Z,54.30
2018-08-12T01:54:36.688Z,54.30
2018-08-12T01:57:04.867Z,54.50
2018-08-12T01:59:33.074Z,54.40
2018-08-12T02:02:01.214Z,54.30
2018-08-12T02:04:29.389Z,54.70
2018-08-12T02:06:57.547Z,55.60
2018-08-12T02:09:25.674Z,55.60
2018-08-12T02:11:53.890Z,56.30
2018-08-12T02:14:22.033Z,56.90
2018-08-12T02:16:50.237Z,57.10
2018-08-12T02:19:18.395Z,57.20
2018-08-12T02:21:46.533Z,56.80
2018-08-12T02:24:14.688Z,56.90
2018-08-12T02:26:42.860Z,57.20
2018-08-12T02:29:10.997Z,57.20
2018-08-12T02:31:39.158Z,57.40
2018-08-12T02:34:07.383Z,57.50
2018-08-12T02:36:35.546Z,58.20
2018-08-12T02:39:05.709Z,58.10
2018-08-12T02:41:33.881Z,58.60
2018-08-12T02:44:02.011Z,58.70
2018-08-12T02:46:30.150Z,59.40
2018-08-12T02:48:58.325Z,59.40
2018-08-12T02:51:26.524Z,59.40
2018-08-12T02:53:54.707Z,59.70
2018-08-12T02:56:22.898Z,60.10
2018-08-12T02:58:51.042Z,59.40
2018-08-12T03:01:19.325Z,59.70
2018-08-12T03:03:47.491Z,60.00
2018-08-12T03:06:15.653Z,60.40
2018-08-12T03:08:43.977Z,60.80
2018-08-12T03:11:12.144Z,61.30
2018-08-12T03:13:40.299Z,61.40
2018-08-12T03:16:08.469Z,61.10
2018-08-12T03:18:36.622Z,61.00
2018-08-12T03:21:04.755Z,59.90
2018-08-12T03:23:32.961Z,59.20
2018-08-12T03:26:01.111Z,58.70
2018-08-12T03:28:29.269Z,59.10
2018-08-12T03:30:57.496Z,59.10
2018-08-12T03:33:25.652Z,59.10
2018-08-12T03:35:53.798Z,59.10
2018-08-12T03:38:21.973Z,59.50
2018-08-12T03:40:50.108Z,59.90
2018-08-12T03:43:18.279Z,59.40
2018-08-12T03:45:46.437Z,59.50
2018-08-12T03:48:14.592Z,60.60
2018-08-12T03:50:42.781Z,61.30
2018-08-12T03:53:10.959Z,61.80
2018-08-12T03:55:39.128Z,62.90
2018-08-12T03:58:07.325Z,62.80
2018-08-12T04:00:35.488Z,62.60
2018-08-12T04:03:03.623Z,63.20
2018-08-12T04:05:31.785Z,62.80
2018-08-12T04:07:59.921Z,62.90
2018-08-12T04:10:28.101Z,62.70
2018-08-12T04:12:56.278Z,62.40
2018-08-12T04:15:24.460Z,62.10
2018-08-12T04:17:52.627Z,62.00
2018-08-12T04:20:20.805Z,62.70
2018-08-12T04:22:48.958Z,62.20
2018-08-12T04:25:17.120Z,61.70
2018-08-12T04:27:45.281Z,61.30
2018-08-12T04:30:13.465Z,60.80
2018-08-12T04:32:41.705Z,61.00
2018-08-12T04:35:09.845Z,60.00
2018-08-12T04:37:38.230Z,59.50
2018-08-12T04:40:06.985Z,59.00
2018-08-12T04:42:35.135Z,59.00
2018-08-12T04:45:03.614Z,59.00
2018-08-12T04:47:31.769Z,58.80
2018-08-12T04:49:59.926Z,58.80
2018-08-12T04:52:28.092Z,56.50
2018-08-12T04:54:56.286Z,54.50
2018-08-12T04:57:24.436Z,53.00
2018-08-12T04:59:52.600Z,51.50
2018-08-12T05:02:20.768Z,50.80
2018-08-12T05:04:48.916Z,50.60
2018-08-12T05:07:17.089Z,50.20
2018-08-12T05:09:45.265Z,51.20
2018-08-12T05:12:13.434Z,50.60
2018-08-12T05:14:41.592Z,51.20
2018-08-12T05:17:09.760Z,52.70
2018-08-12T05:19:37.890Z,53.60
2018-08-12T05:22:06.245Z,54.80
2018-08-12T05:24:34.420Z,54.90
2018-08-12T05:27:02.569Z,54.60
2018-08-12T05:29:30.725Z,53.30
2018-08-12T05:31:58.912Z,53.60
2018-08-12T05:34:27.099Z,53.30
2018-08-12T05:36:55.261Z,54.40
2018-08-12T05:39:23.437Z,53.70
2018-08-12T05:41:51.630Z,53.90
2018-08-12T05:44:20.099Z,53.30
2018-08-12T05:46:48.265Z,53.10
2018-08-12T05:49:16.428Z,53.20
2018-08-12T05:51:44.583Z,52.90
2018-08-12T05:54:12.757Z,52.30
2018-08-12T05:56:40.916Z,52.40
2018-08-12T05:59:09.120Z,51.50
2018-08-12T06:01:37.279Z,51.10
2018-08-12T06:04:05.451Z,50.50
2018-08-12T06:06:33.652Z,50.50
2018-08-12T06:09:01.829Z,50.20
2018-08-12T06:11:29.976Z,51.30
2018-08-12T06:13:58.175Z,50.20
2018-08-12T06:16:26.312Z,49.90
2018-08-12T06:18:54.461Z,49.80
2018-08-12T06:21:22.630Z,49.40
2018-08-12T06:23:57.605Z,48.30
2018-08-12T06:26:25.797Z,47.60
2018-08-12T06:28:54.006Z,47.20
2018-08-12T06:31:22.268Z,47.20
2018-08-12T06:33:50.436Z,46.80
2018-08-12T06:36:18.698Z,46.20
2018-08-12T06:38:46.853Z,46.50
2018-08-12T06:41:15.030Z,45.80
2018-08-12T06:43:43.186Z,45.10
2018-08-12T06:46:11.443Z,45.00
2018-08-12T06:48:39.589Z,44.50
2018-08-12T06:51:07.795Z,44.30
2018-08-12T06:53:35.961Z,43.30
2018-08-12T06:56:04.128Z,43.30
2018-08-12T06:58:32.280Z,42.60
2018-08-12T07:01:00.488Z,42.30
2018-08-12T07:03:28.658Z,41.90
2018-08-12T07:05:56.825Z,41.70
2018-08-12T07:08:25.021Z,41.20
2018-08-12T07:10:53.164Z,41.30
2018-08-12T07:13:21.329Z,41.10
2018-08-12T07:15:49.514Z,40.40
2018-08-12T07:18:17.657Z,39.50
2018-08-12T07:20:46.048Z,39.40
2018-08-12T07:23:14.216Z,38.90
2018-08-12T07:25:42.357Z,38.00
2018-08-12T07:28:10.529Z,38.00
2018-08-12T07:30:38.767Z,37.00
2018-08-12T07:33:07.470Z,36.60
2018-08-12T07:35:35.596Z,35.30
2018-08-12T07:38:03.737Z,34.80
2018-08-12T07:40:31.948Z,34.40
2018-08-12T07:43:00.052Z,34.00
2018-08-12T07:45:28.210Z,33.30
2018-08-12T07:47:56.400Z,32.70
2018-08-12T07:50:24.540Z,32.40
2018-08-12T07:52:52.680Z,32.10
2018-08-12T07:55:20.869Z,32.00
2018-08-12T07:57:49.054Z,31.10
2018-08-12T08:00:18.386Z,31.30
2018-08-12T08:02:46.645Z,31.30
2018-08-12T08:05:14.823Z,31.10
2018-08-12T08:07:43.180Z,30.40
2018-08-12T08:10:13.277Z,30.40
2018-08-12T08:12:41.651Z,30.30
2018-08-12T08:15:15.683Z,30.10
2018-08-12T08:17:43.977Z,29.50
2018-08-12T08:20:13.154Z,29.10
2018-08-12T08:22:41.622Z,29.00
2018-08-12T08:25:10.749Z,28.70
2018-08-12T08:27:39.037Z,28.50
2018-08-12T08:30:10.164Z,28.10
2018-08-12T08:32:38.706Z,28.10
2018-08-12T08:35:08.069Z,28.20
2018-08-12T08:37:36.321Z,27.80
2018-08-12T08:40:07.937Z,27.40
2018-08-12T08:42:36.136Z,27.00
2018-08-12T08:45:08.006Z,27.00
2018-08-12T08:47:36.216Z,26.30
2018-08-12T08:50:05.339Z,26.40
2018-08-12T08:52:33.611Z,26.20
2018-08-12T08:55:01.694Z,25.80
2018-08-12T08:57:29.832Z,24.70
2018-08-12T08:59:57.981Z,24.50
2018-08-12T09:02:26.141Z,23.50
2018-08-12T09:04:54.284Z,23.50
2018-08-12T09:07:22.417Z,23.30
2018-08-12T09:09:50.615Z,23.50
2018-08-12T09:12:18.771Z,22.20
2018-08-12T09:14:46.936Z,22.10
2018-08-12T09:17:15.240Z,21.40
2018-08-12T09:19:43.426Z,21.30
2018-08-12T09:22:11.596Z,20.70
2018-08-12T09:24:39.765Z,19.60
2018-08-12T09:27:07.930Z,19.60
2018-08-12T09:29:36.123Z,19.80
2018-08-12T09:32:04.306Z,19.20
2018-08-12T09:34:32.441Z,19.00
2018-08-12T09:37:00.652Z,18.00
2018-08-12T09:39:28.844Z,18.10
2018-08-12T09:41:56.997Z,17.00
2018-08-12T09:44:25.153Z,17.90
2018-08-12T09:46:53.409Z,18.10
2018-08-12T09:49:21.560Z,17.10
2018-08-12T09:51:49.824Z,17.00
2018-08-12T09:54:17.889Z,16.70
2018-08-12T09:56:46.097Z,16.60
2018-08-12T09:59:14.236Z,17.00
2018-08-12T10:01:42.414Z,17.10
2018-08-12T10:04:10.593Z,17.60
2018-08-12T10:06:38.956Z,17.50
2018-08-12T10:09:08.910Z,17.70
2018-08-12T10:11:37.092Z,18.10
2018-08-12T10:14:05.262Z,17.30
2018-08-12T10:16:33.407Z,17.30
2018-08-12T10:19:01.569Z,17.10
2018-08-12T10:21:29.730Z,17.30
2018-08-12T10:23:58.362Z,16.90
2018-08-12T10:26:26.885Z,16.60
2018-08-12T10:28:55.010Z,16.30
2018-08-12T10:31:23.174Z,16.20
2018-08-12T10:33:51.428Z,15.90
2018-08-12T10:36:19.585Z,15.80
2018-08-12T10:38:47.921Z,15.10
2018-08-12T10:41:16.113Z,15.00
2018-08-12T10:43:44.249Z,15.00
2018-08-12T10:46:12.389Z,15.00
2018-08-12T10:48:40.564Z,14.50
2018-08-12T10:51:08.716Z,14.50
2018-08-12T10:53:36.862Z,13.40
2018-08-12T10:56:05.460Z,13.20
2018-08-12T10:58:33.616Z,12.80
2018-08-12T11:01:01.773Z,13.10
2018-08-12T11:03:29.996Z,12.70
2018-08-12T11:05:58.137Z,12.50
2018-08-12T11:08:26.286Z,13.10
2018-08-12T11:10:54.617Z,13.20
2018-08-12T11:13:22.790Z,12.50
2018-08-12T11:15:50.941Z,12.50
2018-08-12T11:18:19.197Z,12.20
2018-08-12T11:20:47.381Z,12.40
2018-08-12T11:23:15.553Z,12.20
2018-08-12T11:25:43.880Z,12.50
2018-08-12T11:28:12.029Z,12.60
2018-08-12T11:30:40.173Z,12.70
2018-08-12T11:33:08.347Z,11.80
2018-08-12T11:35:36.491Z,11.40
2018-08-12T11:38:04.633Z,11.30
2018-08-12T11:40:32.877Z,11.40
2018-08-12T11:43:01.048Z,11.40
2018-08-12T11:45:29.248Z,11.50
2018-08-12T11:47:57.390Z,11.40
2018-08-12T11:50:25.585Z,11.50
2018-08-12T11:52:53.765Z,10.90
2018-08-12T11:55:21.900Z,11.10
2018-08-12T11:57:50.053Z,11.50
2018-08-12T12:00:20.083Z,10.80
2018-08-12T12:02:52.107Z,10.50
2018-08-12T12:05:20.313Z,9.60
2018-08-12T12:07:48.552Z,9.20
2018-08-12T12:10:18.857Z,8.30
2018-08-12T12:12:48.146Z,9.20
2018-08-12T12:15:16.804Z,9.50
2018-08-12T12:17:45.260Z,9.60
2018-08-12T12:20:14.109Z,9.90
2018-08-12T12:22:43.267Z,9.80
2018-08-12T12:25:12.680Z,9.50
2018-08-12T12:27:40.881Z,9.70
2018-08-12T12:30:12.400Z,9.40
2018-08-12T12:32:40.922Z,9.30
2018-08-12T12:35:09.186Z,8.80
2018-08-12T12:37:37.495Z,8.70
2018-08-12T12:40:06.385Z,8.10
2018-08-12T12:42:34.626Z,8.50
2018-08-12T12:45:02.783Z,8.20
2018-08-12T12:47:30.937Z,8.10
2018-08-12T12:49:59.096Z,7.90
2018-08-12T12:52:27.336Z,7.70
2018-08-12T12:54:55.467Z,7.20
2018-08-12T12:57:23.909Z,7.00
2018-08-12T12:59:52.114Z,7.30
2018-08-12T13:02:20.272Z,7.20
2018-08-12T13:04:48.500Z,7.00
2018-08-12T13:07:16.660Z,7.10
2018-08-12T13:09:44.886Z,7.20
2018-08-12T13:12:14.137Z,7.00
2018-08-12T13:14:42.395Z,6.80
2018-08-12T13:17:10.536Z,6.70
2018-08-12T13:19:38.725Z,6.70
2018-08-12T13:22:07.120Z,7.00
2018-08-12T13:24:35.275Z,6.30
2018-08-12T13:27:03.487Z,6.30
2018-08-12T13:29:31.723Z,6.70
2018-08-12T13:31:59.969Z,6.50
2018-08-12T13:34:28.225Z,6.40
2018-08-12T13:36:56.464Z,6.40
2018-08-12T13:39:24.624Z,6.20
2018-08-12T13:41:52.828Z,5.90
2018-08-12T13:44:21.841Z,5.90
2018-08-12T13:46:50.041Z,5.70
2018-08-12T13:49:18.314Z,5.20
2018-08-12T13:51:46.473Z,5.30
2018-08-12T13:54:14.624Z,5.60
2018-08-12T13:56:42.780Z,5.70
2018-08-12T13:59:10.989Z,5.10
2018-08-12T14:01:39.174Z,5.00
2018-08-12T14:04:07.339Z,5.10
2018-08-12T14:06:35.550Z,5.20
2018-08-12T14:09:05.353Z,4.90
2018-08-12T14:11:33.562Z,4.70
2018-08-12T14:14:02.295Z,4.90
2018-08-12T14:16:30.438Z,4.50
2018-08-12T14:18:58.641Z,4.90
2018-08-12T14:21:27.028Z,4.30
2018-08-12T14:23:55.228Z,4.50
2018-08-12T14:26:23.384Z,4.30
2018-08-12T14:28:51.618Z,4.10
2018-08-12T14:31:19.909Z,3.90
2018-08-12T14:33:48.168Z,4.00
2018-08-12T14:36:16.364Z,4.00
2018-08-12T14:38:44.536Z,4.10
2018-08-12T14:41:12.717Z,4.10
2018-08-12T14:43:40.890Z,3.90
2018-08-12T14:46:09.143Z,3.70
2018-08-12T14:48:37.331Z,3.20
2018-08-12T14:51:05.630Z,3.40
2018-08-12T14:53:33.756Z,3.40
2018-08-12T14:56:01.937Z,3.30
2018-08-12T14:58:30.243Z,3.10
2018-08-12T15:00:58.809Z,3.00
2018-08-12T15:03:27.130Z,3.00
2018-08-12T15:05:55.384Z,2.70
2018-08-12T15:08:23.598Z,2.50
2018-08-12T15:10:51.837Z,2.90
2018-08-12T15:13:20.114Z,3.00
2018-08-12T15:15:48.452Z,2.90
2018-08-12T15:18:17.061Z,3.10
2018-08-12T15:20:45.307Z,2.60
2018-08-12T15:23:13.480Z,2.80
2018-08-12T15:25:41.740Z,3.00
2018-08-12T15:28:10.068Z,2.90
2018-08-12T15:30:38.313Z,3.10
2018-08-12T15:33:06.508Z,3.50
2018-08-12T15:35:34.724Z,3.60
2018-08-12T15:38:02.920Z,3.90
2018-08-12T15:40:31.085Z,4.20
2018-08-12T15:42:59.271Z,4.40
2018-08-12T15:45:27.487Z,3.90
2018-08-12T15:47:55.676Z,4.00
2018-08-12T15:50:23.846Z,4.10
2018-08-12T15:52:52.065Z,4.40
2018-08-12T15:55:20.359Z,4.40
2018-08-12T15:57:48.549Z,4.20
2018-08-12T16:00:18.850Z,4.30
2018-08-12T16:02:47.072Z,4.20
2018-08-12T16:05:15.260Z,4.10
2018-08-12T16:07:44.264Z,4.10
2018-08-12T16:10:14.844Z,4.10
2018-08-12T16:12:43.253Z,4.10
2018-08-12T16:15:12.423Z,4.10
2018-08-12T16:17:41.181Z,4.20
2018-08-12T16:20:10.144Z,4.90
2018-08-12T16:22:38.613Z,3.90
2018-08-12T16:25:09.283Z,3.50
2018-08-12T16:27:37.437Z,3.60
2018-08-12T16:30:06.780Z,3.40
2018-08-12T16:32:34.963Z,3.30
2018-08-12T16:35:03.119Z,3.50
2018-08-12T16:37:31.350Z,3.40
2018-08-12T16:39:59.633Z,3.30
2018-08-12T16:42:27.891Z,3.60
2018-08-12T16:44:56.140Z,3.30
2018-08-12T16:47:24.264Z,2.90
2018-08-12T16:49:52.484Z,2.90
2018-08-12T16:52:20.632Z,2.50
2018-08-12T16:54:48.843Z,2.40
2018-08-12T16:57:16.921Z,2.50
2018-08-12T16:59:45.090Z,2.70
2018-08-12T17:02:13.224Z,2.20
2018-08-12T17:04:41.432Z,2.10
2018-08-12T17:07:09.570Z,1.80
2018-08-12T17:09:37.737Z,1.80
2018-08-12T17:12:05.910Z,2.00
2018-08-12T17:14:34.044Z,2.30
2018-08-12T17:17:02.214Z,1.40
2018-08-12T17:19:30.399Z,1.30
2018-08-12T17:21:58.544Z,1.40
2018-08-12T17:24:26.724Z,1.10
2018-08-12T17:26:54.860Z,1.00
2018-08-12T17:29:23.007Z,1.00
2018-08-12T17:31:51.181Z,1.00
2018-08-12T17:34:19.337Z,1.00
2018-08-12T17:36:47.480Z,1.00
2018-08-12T17:39:15.652Z,1.00
2018-08-12T17:41:43.809Z,1.00
2018-08-12T17:44:11.953Z,1.00
2018-08-12T17:46:40.134Z,1.90
2018-08-12T17:49:08.345Z,1.30
2018-08-12T17:51:36.921Z,1.40
2018-08-12T17:54:05.070Z,1.40
2018-08-12T17:56:33.252Z,1.40
2018-08-12T17:59:01.408Z,1.80
2018-08-12T18:01:29.531Z,2.20
2018-08-12T18:03:57.733Z,2.30
2018-08-12T18:06:25.873Z,2.40
2018-08-12T18:08:54.022Z,2.60
2018-08-12T18:11:22.203Z,2.60
2018-08-12T18:13:50.395Z,3.00
2018-08-12T18:16:18.584Z,3.50
2018-08-12T18:18:46.724Z,3.40
2018-08-12T18:21:14.917Z,3.30
2018-08-12T18:23:43.082Z,3.20
2018-08-12T18:26:11.237Z,3.80
2018-08-12T18:28:39.416Z,4.20
2018-08-12T18:31:07.565Z,4.10
2018-08-12T18:33:35.765Z,4.30
2018-08-12T18:36:03.976Z,4.40
2018-08-12T18:38:32.114Z,5.50
2018-08-12T18:41:00.257Z,5.30
2018-08-12T18:43:28.423Z,5.70
2018-08-12T18:45:56.544Z,5.80
2018-08-12T18:48:24.746Z,6.00
2018-08-12T18:50:52.921Z,6.20
2018-08-12T18:53:21.103Z,6.60
2018-08-12T18:55:49.242Z,6.70
2018-08-12T18:58:17.466Z,7.00
2018-08-12T19:00:45.572Z,7.40
2018-08-12T19:03:13.736Z,7.50
2018-08-12T19:05:41.929Z,7.90
2018-08-12T19:08:10.239Z,8.30
2018-08-12T19:10:38.376Z,8.50
2018-08-12T19:13:06.590Z,8.60
2018-08-12T19:15:34.728Z,8.80
2018-08-12T19:18:02.976Z,9.00
2018-08-12T19:20:31.109Z,9.30
2018-08-12T19:22:59.317Z,9.70
2018-08-12T19:25:27.450Z,9.90
2018-08-12T19:27:55.667Z,10.00
2018-08-12T19:30:23.809Z,9.90
2018-08-12T19:32:52.076Z,9.80
2018-08-12T19:35:20.273Z,10.10
2018-08-12T19:37:49.458Z,10.40
2018-08-12T19:40:17.642Z,10.60
2018-08-12T19:42:45.868Z,11.10
2018-08-12T19:45:14.004Z,11.30
2018-08-12T19:47:42.209Z,11.60
2018-08-12T19:50:10.374Z,11.70
2018-08-12T19:52:38.559Z,11.90
2018-08-12T19:55:07.350Z,12.10
2018-08-12T19:57:35.505Z,12.80
2018-08-12T20:00:04.517Z,12.40
2018-08-12T20:02:32.632Z,12.60
2018-08-12T20:05:00.805Z,12.80
2018-08-12T20:07:28.957Z,13.10
2018-08-12T20:09:57.093Z,13.20
2018-08-12T20:12:25.327Z,13.20
2018-08-12T20:14:53.445Z,13.20
2018-08-12T20:17:21.606Z,13.40
2018-08-12T20:19:49.757Z,13.70
2018-08-12T20:22:17.916Z,13.90
2018-08-12T20:24:46.094Z,14.10
2018-08-12T20:27:14.235Z,14.20
2018-08-12T20:29:42.757Z,14.40
2018-08-12T20:32:10.992Z,14.70
2018-08-12T20:34:39.293Z,15.00
2018-08-12T20:37:07.473Z,15.10
2018-08-12T20:39:35.678Z,15.30
2018-08-12T20:42:03.809Z,15.40
2018-08-12T20:44:31.955Z,15.50
2018-08-12T20:47:00.112Z,15.50
2018-08-12T20:49:28.293Z,15.60
2018-08-12T20:51:56.466Z,15.40
2018-08-12T20:54:24.619Z,15.40
2018-08-12T20:56:52.805Z,15.50
2018-08-12T20:59:21.096Z,15.60
2018-08-12T21:01:49.205Z,15.80
2018-08-12T21:04:17.368Z,15.80
2018-08-12T21:06:45.630Z,16.10
2018-08-12T21:09:13.817Z,16.00
2018-08-12T21:11:42.018Z,16.30
2018-08-12T21:14:10.098Z,16.20
2018-08-12T21:16:38.352Z,16.50
2018-08-12T21:19:06.904Z,16.40
2018-08-12T21:21:35.180Z,16.40
2018-08-12T21:24:03.357Z,16.60
2018-08-12T21:26:31.568Z,16.80
2018-08-12T21:28:59.749Z,16.90
2018-08-12T21:31:27.920Z,17.10
2018-08-12T21:33:56.069Z,17.10
2018-08-12T21:36:24.217Z,17.30
2018-08-12T21:38:52.385Z,17.50
2018-08-12T21:41:20.515Z,17.60
2018-08-12T21:43:48.666Z,18.10
2018-08-12T21:46:16.845Z,18.20
2018-08-12T21:48:45.017Z,18.50
2018-08-12T21:51:13.164Z,18.80
2018-08-12T21:53:41.344Z,19.10
2018-08-12T21:56:09.535Z,19.20
2018-08-12T21:58:37.707Z,19.50
2018-08-12T22:01:06.354Z,20.00
2018-08-12T22:03:34.560Z,20.00
2018-08-12T22:06:02.815Z,20.30
2018-08-12T22:08:30.877Z,20.90
2018-08-12T22:10:59.044Z,21.30
2018-08-12T22:13:27.209Z,21.70
2018-08-12T22:15:55.571Z,22.30
2018-08-12T22:18:23.714Z,22.80
2018-08-12T22:20:51.917Z,23.30
2018-08-12T22:23:20.048Z,23.70
2018-08-12T22:25:48.224Z,23.70
2018-08-12T22:28:16.395Z,24.30
2018-08-12T22:30:44.562Z,24.60
2018-08-12T22:33:12.721Z,25.00
2018-08-12T22:35:40.923Z,25.10
2018-08-12T22:38:09.078Z,25.50
2018-08-12T22:40:37.245Z,25.90
2018-08-12T22:43:06.076Z,26.20
2018-08-12T22:45:34.216Z,26.50
2018-08-12T22:48:02.366Z,26.90
2018-08-12T22:50:30.595Z,27.20
2018-08-12T22:52:58.727Z,27.40
2018-08-12T22:55:26.888Z,27.60
2018-08-12T22:57:55.053Z,28.00
2018-08-12T23:00:23.219Z,28.20
2018-08-12T23:02:51.415Z,28.60
2018-08-12T23:05:19.620Z,28.90
2018-08-12T23:07:47.839Z,29.40
2018-08-12T23:10:15.936Z,29.80
2018-08-12T23:12:44.185Z,29.50
2018-08-12T23:15:23.760Z,29.90
2018-08-12T23:17:51.919Z,30.00
2018-08-12T23:20:20.064Z,30.40
2018-08-12T23:22:48.230Z,30.50
2018-08-12T23:25:16.430Z,31.00
2018-08-12T23:27:44.591Z,30.70
2018-08-12T23:30:12.747Z,30.30
2018-08-12T23:32:41.096Z,30.10
2018-08-12T23:35:09.409Z,30.00
2018-08-12T23:37:37.756Z,29.90
2018-08-12T23:40:06.801Z,29.90
2018-08-12T23:42:35.013Z,30.00
2018-08-12T23:45:03.157Z,30.30
2018-08-12T23:47:31.318Z,30.30
2018-08-12T23:49:59.454Z,30.60
2018-08-12T23:52:27.629Z,30.90
2018-08-12T23:54:55.764Z,31.20
2018-08-12T23:57:23.901Z,31.10
2018-08-12T23:59:52.056Z,31.10
